Aikoumaru No.8 — JD3288 — position and weather

sailwx.info

Track history (hours):
 
Tides and Currents Weather Stations Pressure Air Temp Water Temp Dewpoint Dewpoint Depression Visibility Wind Speed Wind Dir Waves Ship Positions

Aikoumaru No.8

Last reported at 2015-Aug-04 13:28 UTC. Time now 2015-Aug-04 13:52 UTC.
Position N 35°31' E 139°50'.

Length 74 m; draft 4.8 m.

Type: Cargo ship. MMSI: 431003153.

Date/timePositionNaut miles runAvg speedWind from/ knotsBaromVisibWave heightAir tempDewpointWater temp
2015-Aug-04 13:28N 35°31' E 139°50'0 0.0
2015-Aug-04 12:31N 35°31' E 139°50'0 0.0
2015-Aug-04 11:31N 35°31' E 139°50'0 0.0
2015-Aug-04 10:31N 35°31' E 139°50'0 0.0
2015-Aug-04 09:31N 35°31' E 139°50'0 0.0
2015-Aug-04 08:31N 35°31' E 139°50'0 0.0
2015-Aug-04 07:31N 35°31' E 139°50'1 0.6
2015-Aug-04 06:33N 35°31' E 139°51'1010.3
2015-Aug-04 05:33N 35°40' E 139°57'1 0.8
2015-Aug-04 04:33N 35°41' E 139°58'0 0.0
2015-Aug-04 03:15N 35°41' E 139°58'0 0.0
2015-Aug-04 02:15N 35°41' E 139°58'0 0.0
2015-Aug-04 01:33N 35°41' E 139°58'0 0.0
2015-Aug-04 00:30N 35°41' E 139°58'0 0.0
2015-Aug-03 23:30N 35°41' E 139°58'0 0.0
2015-Aug-03 22:33N 35°41' E 139°58'0 0.0
2015-Aug-03 21:33N 35°41' E 139°58'0 0.0
2015-Aug-03 20:33N 35°41' E 139°58'0 0.0
2015-Aug-03 19:33N 35°41' E 139°58'0 0.0
2015-Aug-03 18:33N 35°41' E 139°58'0 0.0
2015-Aug-03 17:33N 35°41' E 139°58'0 0.0
2015-Aug-03 16:33N 35°41' E 139°58'0 0.0
2015-Aug-03 15:33N 35°41' E 139°58'0 0.0
2015-Aug-03 14:33N 35°41' E 139°58'0 0.0
2015-Aug-03 13:33N 35°41' E 139°58'0 0.0
2015-Aug-03 12:33N 35°41' E 139°58'0 0.0
2015-Aug-03 11:33N 35°41' E 139°58'0 0.0
2015-Aug-03 10:33N 35°41' E 139°58'0 0.0
2015-Aug-03 09:33N 35°41' E 139°58'0 0.0
2015-Aug-03 08:33N 35°41' E 139°58'0 0.0
2015-Aug-03 07:33N 35°41' E 139°58'9 9.0
2015-Aug-03 06:33N 35°32' E 139°55'1212.0
2015-Aug-03 05:33N 35°23' E 139°46'1111.1
2015-Aug-03 04:33N 35°12' E 139°47'1111.4
2015-Aug-03 03:33N 35°03' E 139°38'1613.7
2015-Aug-03 02:23N 34°53' E 139°23'22310.2
2015-Aug-02 04:33N 34°00' E 135°00'1111.5
2015-Aug-02 03:33N 34°12' E 134°59'4 0.1
2015-Jul-31 19:12N 34°08' E 135°00'1 0.0
2015-Jul-30 01:33N 34°09' E 134°59'1312.5
2015-Jul-30 00:31N 34°22' E 135°00'1212.0
2015-Jul-29 23:33N 34°33' E 135°04'9 8.4
2015-Jul-29 22:32N 34°37' E 134°54'3 0.2
2015-Jul-29 03:32N 34°38' E 134°58'8 7.9
2015-Jul-29 02:33N 34°32' E 135°05'2411.8
2015-Jul-29 00:31N 34°08' E 135°00'  
2015-Jul-25 19:09N 34°06' E 134°48'  
Track history (hours):
 
Tides and Currents Weather Stations Pressure Air Temp Water Temp Dewpoint Dewpoint Depression Visibility Wind Speed Wind Dir Waves Ship Positions

Aikoumaru No.8

Last reported at 2015-Aug-04 13:28 UTC. Time now 2015-Aug-04 13:52 UTC.
Position N 35°31' E 139°50'.

Length 74 m; draft 4.8 m.

Type: Cargo ship. MMSI: 431003153.

Date/timePositionNaut miles runAvg speedWind from/ knotsBaromVisibWave heightAir tempDewpointWater temp
2015-Aug-04 13:28N 35°31' E 139°50'0 0.0
2015-Aug-04 12:31N 35°31' E 139°50'0 0.0
2015-Aug-04 11:31N 35°31' E 139°50'0 0.0
2015-Aug-04 10:31N 35°31' E 139°50'0 0.0
2015-Aug-04 09:31N 35°31' E 139°50'0 0.0
2015-Aug-04 08:31N 35°31' E 139°50'0 0.0
2015-Aug-04 07:31N 35°31' E 139°50'1 0.6
2015-Aug-04 06:33N 35°31' E 139°51'1010.3
2015-Aug-04 05:33N 35°40' E 139°57'1 0.8
2015-Aug-04 04:33N 35°41' E 139°58'0 0.0
2015-Aug-04 03:15N 35°41' E 139°58'0 0.0
2015-Aug-04 02:15N 35°41' E 139°58'0 0.0
2015-Aug-04 01:33N 35°41' E 139°58'0 0.0
2015-Aug-04 00:30N 35°41' E 139°58'0 0.0
2015-Aug-03 23:30N 35°41' E 139°58'0 0.0
2015-Aug-03 22:33N 35°41' E 139°58'0 0.0
2015-Aug-03 21:33N 35°41' E 139°58'0 0.0
2015-Aug-03 20:33N 35°41' E 139°58'0 0.0
2015-Aug-03 19:33N 35°41' E 139°58'0 0.0
2015-Aug-03 18:33N 35°41' E 139°58'0 0.0
2015-Aug-03 17:33N 35°41' E 139°58'0 0.0
2015-Aug-03 16:33N 35°41' E 139°58'0 0.0
2015-Aug-03 15:33N 35°41' E 139°58'0 0.0
2015-Aug-03 14:33N 35°41' E 139°58'0 0.0
2015-Aug-03 13:33N 35°41' E 139°58'0 0.0
2015-Aug-03 12:33N 35°41' E 139°58'0 0.0
2015-Aug-03 11:33N 35°41' E 139°58'0 0.0
2015-Aug-03 10:33N 35°41' E 139°58'0 0.0
2015-Aug-03 09:33N 35°41' E 139°58'0 0.0
2015-Aug-03 08:33N 35°41' E 139°58'0 0.0
2015-Aug-03 07:33N 35°41' E 139°58'9 9.0
2015-Aug-03 06:33N 35°32' E 139°55'1212.0
2015-Aug-03 05:33N 35°23' E 139°46'1111.1
2015-Aug-03 04:33N 35°12' E 139°47'1111.4
2015-Aug-03 03:33N 35°03' E 139°38'1613.7
2015-Aug-03 02:23N 34°53' E 139°23'22310.2
2015-Aug-02 04:33N 34°00' E 135°00'1111.5
2015-Aug-02 03:33N 34°12' E 134°59'4 0.1
2015-Jul-31 19:12N 34°08' E 135°00'1 0.0
2015-Jul-30 01:33N 34°09' E 134°59'1312.5
2015-Jul-30 00:31N 34°22' E 135°00'1212.0
2015-Jul-29 23:33N 34°33' E 135°04'9 8.4
2015-Jul-29 22:32N 34°37' E 134°54'3 0.2
2015-Jul-29 03:32N 34°38' E 134°58'8 7.9
2015-Jul-29 02:33N 34°32' E 135°05'2411.8
2015-Jul-29 00:31N 34°08' E 135°00'  
2015-Jul-25 19:09N 34°06' E 134°48'  

Dump ship's entire track history